Pelzer, South Carolina
Current Conditions -  °F | °C
As of 6:47 AM on Thursday 29 Jan 2015 (Local Time) from KGYH Reporting Station
Clear Clear  
Wind Chill:   Ceiling: Unl
Heat Index:   Visibility: 10mi
Dew Point: -8°   Wind: 3mph
Humidity: 52%   Direction: 240°WSW
Pressure: 30.29"   Gusts: NA
Location:  34.64°N, 82.46°W
Report Text: KGYH 291147Z 24003KT 10SM CLR 01/M08 A3029
Loading
Personal Weather Stations






























Interactive Weather Map New forecast layout! Learn more

10-Day Weather Forecast

Advertisements
Track Severe Weather on mobile